createdAt,value
2023-04-20T00:00:44.422Z,97896.84
2023-04-20T00:03:17.669Z,97895.45
2023-04-20T00:05:44.335Z,97894.23
2023-04-20T00:08:10.660Z,97893.16
2023-04-20T00:10:37.029Z,97893.11
2023-04-20T00:13:03.619Z,97893.45
2023-04-20T00:15:29.920Z,97891.54
2023-04-20T00:17:56.350Z,97890.34
2023-04-20T00:20:22.732Z,97889.48
2023-04-20T00:22:49.106Z,97889.98
2023-04-20T00:25:15.545Z,97884.39
2023-04-20T00:27:41.940Z,97878.58
2023-04-20T00:30:09.158Z,97879.38
2023-04-20T00:32:35.885Z,97879.98
2023-04-20T00:35:03.391Z,97879.20
2023-04-20T00:37:30.094Z,97876.41
2023-04-20T00:39:57.126Z,97881.77
2023-04-20T00:42:32.001Z,97880.67
2023-04-20T00:44:58.495Z,97883.58
2023-04-20T00:47:24.845Z,97883.60
2023-04-20T00:49:54.581Z,97885.59
2023-04-20T00:52:21.317Z,97890.11
2023-04-20T00:54:47.881Z,97889.64
2023-04-20T00:57:21.569Z,97890.80
2023-04-20T00:59:50.374Z,97891.05
2023-04-20T01:02:17.201Z,97894.21
2023-04-20T01:04:46.945Z,97892.02
2023-04-20T01:07:13.631Z,97891.03
2023-04-20T01:09:42.511Z,97887.39
2023-04-20T01:12:09.618Z,97889.26
2023-04-20T01:14:36.742Z,97888.38
2023-04-20T01:17:03.226Z,97884.88
2023-04-20T01:19:32.424Z,97885.26
2023-04-20T01:22:09.015Z,97881.90
2023-04-20T01:24:35.953Z,97880.61
2023-04-20T01:27:05.637Z,97883.63
2023-04-20T01:29:34.565Z,97889.19
2023-04-20T01:32:01.721Z,97889.08
2023-04-20T01:34:31.568Z,97884.86
2023-04-20T01:36:58.094Z,97882.72
2023-04-20T01:39:36.752Z,97881.36
2023-04-20T01:42:04.084Z,97879.77
2023-04-20T01:44:30.533Z,97878.33
2023-04-20T01:46:56.931Z,97881.67
2023-04-20T01:49:23.350Z,97880.46
2023-04-20T01:51:52.759Z,97883.39
2023-04-20T01:54:21.134Z,97882.84
2023-04-20T01:56:47.639Z,97882.05
2023-04-20T01:59:15.329Z,97888.52
2023-04-20T02:01:41.803Z,97885.89
2023-04-20T02:04:08.346Z,97886.11
2023-04-20T02:06:37.319Z,97886.14
2023-04-20T02:09:03.844Z,97887.61
2023-04-20T02:11:30.372Z,97887.30
2023-04-20T02:13:56.826Z,97885.05
2023-04-20T02:16:23.197Z,97881.73
2023-04-20T02:18:49.547Z,97881.67
2023-04-20T02:21:15.979Z,97880.70
2023-04-20T02:23:42.298Z,97886.49
2023-04-20T02:26:10.919Z,97886.96
2023-04-20T02:28:39.972Z,97886.55
2023-04-20T02:31:06.649Z,97882.33
2023-04-20T02:33:33.005Z,97887.08
2023-04-20T02:35:59.314Z,97887.62
2023-04-20T02:38:25.767Z,97889.09
2023-04-20T02:40:52.216Z,97886.67
2023-04-20T02:43:18.724Z,97889.35
2023-04-20T02:45:45.827Z,97890.06
2023-04-20T02:48:16.553Z,97888.92
2023-04-20T02:50:42.982Z,97892.27
2023-04-20T02:53:21.530Z,97887.09
2023-04-20T02:55:58.299Z,97888.73
2023-04-20T02:58:34.091Z,97888.98
2023-04-20T03:01:15.428Z,97890.23
2023-04-20T03:03:42.474Z,97893.30
2023-04-20T03:06:10.862Z,97893.93
2023-04-20T03:08:39.187Z,97894.44
2023-04-20T03:11:24.387Z,97892.54
2023-04-20T03:13:50.916Z,97896.07
2023-04-20T03:16:17.406Z,97897.85
2023-04-20T03:18:48.284Z,97894.34
2023-04-20T03:21:14.683Z,97893.63
2023-04-20T03:23:41.118Z,97892.92
2023-04-20T03:26:07.738Z,97895.11
2023-04-20T03:28:57.136Z,97891.92
2023-04-20T03:31:24.927Z,97893.38
2023-04-20T03:33:52.230Z,97893.33
2023-04-20T03:36:18.650Z,97897.17
2023-04-20T03:38:45.213Z,97900.52
2023-04-20T03:41:11.735Z,97900.63
2023-04-20T03:43:38.264Z,97900.66
2023-04-20T03:46:04.787Z,97903.23
2023-04-20T03:48:31.843Z,97901.80
2023-04-20T03:51:01.666Z,97906.44
2023-04-20T03:53:28.065Z,97905.98
2023-04-20T03:55:55.037Z,97908.52
2023-04-20T03:58:21.623Z,97911.70
2023-04-20T04:01:09.644Z,97911.98
2023-04-20T04:03:38.817Z,97917.10
2023-04-20T04:06:06.609Z,97916.54
2023-04-20T04:08:33.233Z,97917.59
2023-04-20T04:10:59.824Z,97914.67
2023-04-20T04:13:26.159Z,97917.05
2023-04-20T04:15:52.660Z,97919.21
2023-04-20T04:18:20.046Z,97918.11
2023-04-20T04:20:46.825Z,97917.52
2023-04-20T04:23:13.468Z,97913.92
2023-04-20T04:25:44.671Z,97913.45
2023-04-20T04:28:11.485Z,97916.66
2023-04-20T04:30:47.110Z,97917.57
2023-04-20T04:33:16.322Z,97923.13
2023-04-20T04:35:43.834Z,97922.06
2023-04-20T04:38:11.355Z,97919.40
2023-04-20T04:40:37.976Z,97922.34
2023-04-20T04:43:08.348Z,97924.36
2023-04-20T04:45:38.320Z,97924.31
2023-04-20T04:48:06.670Z,97926.60
2023-04-20T04:50:35.020Z,97926.77
2023-04-20T04:53:01.504Z,97930.50
2023-04-20T04:55:30.351Z,97932.27
2023-04-20T04:57:56.724Z,97934.98
2023-04-20T05:00:23.469Z,97932.27
2023-04-20T05:02:50.472Z,97933.47
2023-04-20T05:05:17.029Z,97934.96
2023-04-20T05:07:43.640Z,97937.73
2023-04-20T05:10:10.103Z,97939.10
2023-04-20T05:12:37.445Z,97938.67
2023-04-20T05:15:04.209Z,97940.77
2023-04-20T05:17:30.599Z,97946.31
2023-04-20T05:19:57.068Z,97947.30
2023-04-20T05:22:23.602Z,97951.30
2023-04-20T05:24:50.007Z,97948.65
2023-04-20T05:27:16.403Z,97948.59
2023-04-20T05:29:42.971Z,97948.17
2023-04-20T05:32:09.641Z,97951.94
2023-04-20T05:34:43.950Z,97952.86
2023-04-20T05:37:10.820Z,97952.61
2023-04-20T05:39:37.212Z,97951.13
2023-04-20T05:42:04.184Z,97948.13
2023-04-20T05:44:30.653Z,97952.17
2023-04-20T05:47:07.745Z,97953.36
2023-04-20T05:49:34.821Z,97955.94
2023-04-20T05:52:01.591Z,97953.14
2023-04-20T05:54:28.187Z,97952.40
2023-04-20T05:56:54.915Z,97953.38
2023-04-20T05:59:21.779Z,97959.04
2023-04-20T06:01:48.451Z,97958.73
2023-04-20T06:04:15.186Z,97953.02
2023-04-20T06:06:41.831Z,97950.59
2023-04-20T06:09:08.412Z,97953.99
2023-04-20T06:11:34.833Z,97957.49
2023-04-20T06:14:01.308Z,97960.90
2023-04-20T06:16:28.037Z,97959.77
2023-04-20T06:18:57.802Z,97960.24
2023-04-20T06:21:24.510Z,97966.16
2023-04-20T06:23:51.390Z,97968.89
2023-04-20T06:26:17.806Z,97971.77
2023-04-20T06:28:47.342Z,97970.84
2023-04-20T06:31:13.968Z,97969.06
2023-04-20T06:33:40.580Z,97966.16
2023-04-20T06:36:07.142Z,97962.65
2023-04-20T06:38:33.461Z,97963.32
2023-04-20T06:40:59.789Z,97962.27
2023-04-20T06:43:26.160Z,97964.08
2023-04-20T06:45:52.642Z,97966.01
2023-04-20T06:48:31.390Z,97966.94
2023-04-20T06:51:01.376Z,97969.19
2023-04-20T06:53:27.986Z,97961.02
2023-04-20T06:55:54.711Z,97962.75
2023-04-20T06:58:21.243Z,97961.05
2023-04-20T07:00:47.781Z,97962.09
2023-04-20T07:03:14.453Z,97961.70
2023-04-20T07:05:41.161Z,97964.52
2023-04-20T07:08:07.843Z,97967.20
2023-04-20T07:10:34.270Z,97969.17
2023-04-20T07:13:00.719Z,97968.11
2023-04-20T07:15:27.250Z,97969.02
2023-04-20T07:17:53.869Z,97974.91
2023-04-20T07:20:20.376Z,97974.58
2023-04-20T07:22:49.221Z,97978.85
2023-04-20T07:25:15.733Z,97978.73
2023-04-20T07:27:42.223Z,97984.59
2023-04-20T07:30:09.418Z,97984.25
2023-04-20T07:32:39.279Z,97983.45
2023-04-20T07:35:06.185Z,97984.23
2023-04-20T07:37:38.102Z,97982.59
2023-04-20T07:40:05.086Z,97983.38
2023-04-20T07:42:32.551Z,97981.11
2023-04-20T07:44:59.341Z,97985.54
2023-04-20T07:47:25.963Z,97985.15
2023-04-20T07:49:52.329Z,97983.20
2023-04-20T07:52:19.071Z,97985.77
2023-04-20T07:54:55.738Z,97984.91
2023-04-20T07:57:22.299Z,97985.45
2023-04-20T08:00:09.799Z,97983.50
2023-04-20T08:02:54.381Z,97982.60
2023-04-20T08:05:21.573Z,97985.20
2023-04-20T08:07:53.687Z,97983.52
2023-04-20T08:10:20.225Z,97984.89
2023-04-20T08:12:46.807Z,97979.20
2023-04-20T08:15:31.621Z,97980.41
2023-04-20T08:18:07.770Z,97976.38
2023-04-20T08:20:56.101Z,97979.38
2023-04-20T08:23:23.446Z,97975.85
2023-04-20T08:26:12.980Z,97978.91
2023-04-20T08:29:00.970Z,97981.70
2023-04-20T08:31:31.527Z,97981.98
2023-04-20T08:33:58.019Z,97982.52
2023-04-20T08:36:24.465Z,97986.98
2023-04-20T08:38:53.548Z,97986.42
2023-04-20T08:41:30.986Z,97993.42
2023-04-20T08:43:58.332Z,97991.88
2023-04-20T08:46:25.824Z,97990.25
2023-04-20T08:48:53.065Z,97990.30
2023-04-20T08:51:40.075Z,97988.21
2023-04-20T08:54:06.617Z,97985.44
2023-04-20T08:56:37.724Z,97986.52
2023-04-20T08:59:04.908Z,97987.17
2023-04-20T09:01:36.019Z,97994.36
2023-04-20T09:04:17.319Z,97991.62
2023-04-20T09:06:55.597Z,97992.66
2023-04-20T09:09:24.683Z,97992.27
2023-04-20T09:12:22.578Z,97990.97
2023-04-20T09:14:49.692Z,97993.00
2023-04-20T09:17:33.620Z,97995.13
2023-04-20T09:20:03.030Z,97990.05
2023-04-20T09:22:49.890Z,97990.35
2023-04-20T09:25:24.127Z,97991.40
2023-04-20T09:28:11.301Z,97987.95
2023-04-20T09:31:00.182Z,97993.56
2023-04-20T09:33:41.141Z,97990.48
2023-04-20T09:36:10.367Z,97990.36
2023-04-20T09:39:03.203Z,97986.30
2023-04-20T09:41:41.545Z,97991.24
2023-04-20T09:44:37.852Z,97990.84
2023-04-20T09:47:35.110Z,97992.26
2023-04-20T09:50:32.080Z,97991.39
2023-04-20T09:53:16.629Z,97989.32
2023-04-20T09:55:59.313Z,97990.34
2023-04-20T09:58:28.683Z,97994.31
2023-04-20T10:01:25.390Z,97993.27
2023-04-20T10:04:11.656Z,97995.23
2023-04-20T10:06:58.382Z,97996.64
2023-04-20T10:09:29.650Z,97997.64
2023-04-20T10:12:17.775Z,97993.98
2023-04-20T10:14:54.042Z,97996.94
2023-04-20T10:17:29.331Z,97996.11
2023-04-20T10:19:58.717Z,97996.17
2023-04-20T10:22:26.596Z,97998.35
2023-04-20T10:24:53.001Z,97992.22
2023-04-20T10:27:20.799Z,97991.83
2023-04-20T10:29:47.439Z,97993.53
2023-04-20T10:32:26.253Z,97993.73
2023-04-20T10:35:05.608Z,97986.73
2023-04-20T10:37:46.392Z,97983.65
2023-04-20T10:40:12.995Z,97983.02
2023-04-20T10:42:45.809Z,97983.52
2023-04-20T10:45:14.898Z,97980.23
2023-04-20T10:47:41.488Z,97980.03
2023-04-20T10:50:15.651Z,97983.47
2023-04-20T10:52:44.488Z,97982.03
2023-04-20T10:55:21.036Z,97981.23
2023-04-20T10:57:48.042Z,97982.91
2023-04-20T11:00:19.280Z,97980.73
2023-04-20T11:02:47.159Z,97984.14
2023-04-20T11:05:13.960Z,97984.58
2023-04-20T11:07:57.522Z,97982.56
2023-04-20T11:10:36.124Z,97983.39
2023-04-20T11:13:18.437Z,97980.77
2023-04-20T11:15:44.817Z,97976.54
2023-04-20T11:18:11.510Z,97979.16
2023-04-20T11:20:49.219Z,97978.20
2023-04-20T11:23:15.771Z,97977.49
2023-04-20T11:25:52.694Z,97981.47
2023-04-20T11:28:19.800Z,97983.64
2023-04-20T11:30:59.626Z,97985.74
2023-04-20T11:33:29.602Z,97988.19
2023-04-20T11:35:56.880Z,97989.95
2023-04-20T11:38:30.654Z,97991.73
2023-04-20T11:40:57.238Z,97992.99
2023-04-20T11:43:41.170Z,97993.30
2023-04-20T11:46:16.421Z,97990.39
2023-04-20T11:48:42.894Z,97993.16
2023-04-20T11:51:20.097Z,97992.77
2023-04-20T11:53:49.624Z,97993.45
2023-04-20T11:56:36.991Z,97989.05
2023-04-20T11:59:09.327Z,97987.77
2023-04-20T12:01:38.500Z,97990.63
2023-04-20T12:04:05.181Z,97986.71
2023-04-20T12:06:32.460Z,97984.45
2023-04-20T12:08:59.648Z,97986.32
2023-04-20T12:11:26.103Z,97978.27
2023-04-20T12:13:52.668Z,97977.98
2023-04-20T12:16:19.708Z,97974.34
2023-04-20T12:18:51.862Z,97971.39
2023-04-20T12:21:44.544Z,97970.47
2023-04-20T12:24:11.035Z,97968.27
2023-04-20T12:26:46.641Z,97968.99
2023-04-20T12:29:38.092Z,97965.08
2023-04-20T12:32:12.428Z,97969.10
2023-04-20T12:35:00.701Z,97965.65
2023-04-20T12:37:27.925Z,97967.77
2023-04-20T12:39:54.686Z,97967.64
2023-04-20T12:42:21.275Z,97965.77
2023-04-20T12:44:48.200Z,97967.83
2023-04-20T12:47:27.206Z,97969.45
2023-04-20T12:49:53.839Z,97971.45
2023-04-20T12:52:27.549Z,97972.35
2023-04-20T12:55:02.413Z,97966.52
2023-04-20T12:57:29.123Z,97965.86
2023-04-20T13:00:01.692Z,97965.02
2023-04-20T13:02:28.404Z,97961.34
2023-04-20T13:05:07.030Z,97961.18
2023-04-20T13:07:41.184Z,97964.15
2023-04-20T13:10:12.418Z,97964.77
2023-04-20T13:12:38.842Z,97965.09
2023-04-20T13:15:06.700Z,97956.64
2023-04-20T13:17:53.365Z,97955.46
2023-04-20T13:20:44.415Z,97950.48
2023-04-20T13:23:31.195Z,97944.84
2023-04-20T13:25:58.000Z,97939.15
2023-04-20T13:28:27.601Z,97935.57
2023-04-20T13:30:54.060Z,97932.31
2023-04-20T13:33:20.641Z,97935.64
2023-04-20T13:35:58.323Z,97926.49
2023-04-20T13:38:43.754Z,97930.94
2023-04-20T13:41:10.230Z,97930.11
2023-04-20T13:43:57.092Z,97932.53
2023-04-20T13:46:27.283Z,97931.91
2023-04-20T13:48:56.182Z,97935.52
2023-04-20T13:51:43.652Z,97937.89
2023-04-20T13:54:15.226Z,97939.25
2023-04-20T13:56:41.806Z,97941.53
2023-04-20T13:59:15.589Z,97938.27
2023-04-20T14:01:44.694Z,97938.87
2023-04-20T14:04:14.364Z,97936.20
2023-04-20T14:06:43.604Z,97938.88
2023-04-20T14:09:10.050Z,97939.16
2023-04-20T14:11:36.491Z,97939.52
2023-04-20T14:14:02.944Z,97937.57
2023-04-20T14:16:30.468Z,97935.58
2023-04-20T14:18:56.927Z,97937.16
2023-04-20T14:21:23.436Z,97935.33
2023-04-20T14:23:52.911Z,97933.98
2023-04-20T14:26:22.571Z,97936.75
2023-04-20T14:28:48.942Z,97936.20
2023-04-20T14:31:17.970Z,97934.66
2023-04-20T14:33:50.020Z,97928.83
2023-04-20T14:36:16.700Z,97933.36
2023-04-20T14:38:43.276Z,97930.42
2023-04-20T14:41:09.727Z,97926.62
2023-04-20T14:43:36.771Z,97926.04
2023-04-20T14:46:07.232Z,97927.19
2023-04-20T14:48:44.227Z,97930.98
2023-04-20T14:51:19.751Z,97932.64
2023-04-20T14:53:46.264Z,97935.81
2023-04-20T14:56:12.651Z,97936.06
2023-04-20T14:58:39.199Z,97937.10
2023-04-20T15:01:08.371Z,97937.29
2023-04-20T15:03:34.810Z,97941.36
2023-04-20T15:06:04.519Z,97942.11
2023-04-20T15:08:31.139Z,97941.04
2023-04-20T15:10:57.628Z,97943.98
2023-04-20T15:13:24.681Z,97944.20
2023-04-20T15:15:54.196Z,97943.07
2023-04-20T15:18:21.740Z,97942.52
2023-04-20T15:20:50.006Z,97942.72
2023-04-20T15:23:17.024Z,97944.27
2023-04-20T15:25:54.397Z,97937.59
2023-04-20T15:28:23.697Z,97934.33
2023-04-20T15:30:53.870Z,97931.16
2023-04-20T15:33:22.686Z,97932.04
2023-04-20T15:35:49.067Z,97931.13
2023-04-20T15:38:15.970Z,97937.66
2023-04-20T15:40:42.324Z,97936.46
2023-04-20T15:43:11.348Z,97936.36
2023-04-20T15:45:40.816Z,97934.70
2023-04-20T15:48:13.037Z,97933.33
2023-04-20T15:50:49.629Z,97938.42
2023-04-20T15:53:16.397Z,97937.77
2023-04-20T15:55:46.008Z,97934.77
2023-04-20T15:58:12.640Z,97934.25
2023-04-20T16:00:41.543Z,97929.14
2023-04-20T16:03:08.458Z,97929.30
2023-04-20T16:05:39.408Z,97928.74
2023-04-20T16:08:05.887Z,97924.33
2023-04-20T16:10:32.436Z,97924.73
2023-04-20T16:12:59.233Z,97929.02
2023-04-20T16:15:25.737Z,97931.30
2023-04-20T16:17:52.805Z,97924.79
2023-04-20T16:20:21.755Z,97930.00
2023-04-20T16:22:50.783Z,97929.34
2023-04-20T16:25:18.715Z,97926.46
2023-04-20T16:27:47.477Z,97927.03
2023-04-20T16:30:13.969Z,97927.34
2023-04-20T16:32:43.050Z,97928.91
2023-04-20T16:35:12.174Z,97926.48
2023-04-20T16:37:38.742Z,97929.07
2023-04-20T16:40:19.176Z,97931.31
2023-04-20T16:42:45.581Z,97934.81
2023-04-20T16:45:12.366Z,97933.38
2023-04-20T16:47:38.923Z,97932.84
2023-04-20T16:50:10.421Z,97934.11
2023-04-20T16:52:37.938Z,97932.89
2023-04-20T16:55:06.973Z,97938.93
2023-04-20T16:57:33.488Z,97935.08
2023-04-20T17:00:02.270Z,97934.60
2023-04-20T17:02:30.594Z,97936.27
2023-04-20T17:05:02.908Z,97932.15
2023-04-20T17:07:29.553Z,97931.44
2023-04-20T17:09:59.352Z,97936.80
2023-04-20T17:12:26.085Z,97937.59
2023-04-20T17:14:52.615Z,97938.58
2023-04-20T17:17:19.019Z,97936.36
2023-04-20T17:19:47.930Z,97936.40
2023-04-20T17:22:14.421Z,97938.38
2023-04-20T17:24:41.193Z,97937.55
2023-04-20T17:27:07.691Z,97939.38
2023-04-20T17:29:34.157Z,97945.08
2023-04-20T17:32:00.789Z,97943.07
2023-04-20T17:34:27.632Z,97945.17
2023-04-20T17:36:54.094Z,97946.54
2023-04-20T17:39:20.726Z,97945.78
2023-04-20T17:41:47.200Z,97947.14
2023-04-20T17:44:21.259Z,97945.48
2023-04-20T17:46:49.479Z,97944.90
2023-04-20T17:49:15.906Z,97944.94
2023-04-20T17:52:02.966Z,97944.25
2023-04-20T17:54:43.451Z,97943.81
2023-04-20T17:57:12.699Z,97944.80
2023-04-20T17:59:51.497Z,97942.83
2023-04-20T18:02:18.684Z,97942.61
2023-04-20T18:05:19.327Z,97941.15
2023-04-20T18:07:47.255Z,97939.60
2023-04-20T18:10:13.729Z,97941.31
2023-04-20T18:12:43.205Z,97943.98
2023-04-20T18:15:10.816Z,97942.34
2023-04-20T18:17:37.452Z,97943.88
2023-04-20T18:20:05.258Z,97942.55
2023-04-20T18:22:32.669Z,97948.09
2023-04-20T18:24:59.165Z,97947.08
2023-04-20T18:27:37.085Z,97949.98
2023-04-20T18:33:01.081Z,97951.60
2023-04-20T18:35:27.620Z,97950.42
2023-04-20T18:37:54.352Z,97950.61
2023-04-20T18:40:24.175Z,97948.77
2023-04-20T18:42:50.613Z,97951.71
2023-04-20T18:45:17.028Z,97952.83
2023-04-20T18:47:55.510Z,97953.23
2023-04-20T18:50:35.596Z,97954.41
2023-04-20T18:53:02.538Z,97954.80
2023-04-20T18:55:29.152Z,97952.84
2023-04-20T18:57:56.759Z,97956.61
2023-04-20T19:00:23.403Z,97951.23
2023-04-20T19:02:49.995Z,97951.24
2023-04-20T19:05:16.761Z,97951.08
2023-04-20T19:07:44.000Z,97952.58
2023-04-20T19:10:11.349Z,97953.58
2023-04-20T19:12:37.937Z,97957.38
2023-04-20T19:15:05.001Z,97957.84
2023-04-20T19:17:31.942Z,97955.30
2023-04-20T19:19:58.577Z,97950.97
2023-04-20T19:22:25.418Z,97950.59
2023-04-20T19:24:53.662Z,97952.54
2023-04-20T19:27:26.935Z,97952.57
2023-04-20T19:30:06.566Z,97953.17
2023-04-20T19:32:36.319Z,97953.54
2023-04-20T19:35:02.969Z,97953.57
2023-04-20T19:37:33.276Z,97952.08
2023-04-20T19:39:59.712Z,97946.92
2023-04-20T19:42:27.247Z,97947.92
2023-04-20T19:44:55.787Z,97947.02
2023-04-20T19:47:22.859Z,97947.59
2023-04-20T19:49:49.303Z,97949.93
2023-04-20T19:52:21.305Z,97950.55
2023-04-20T19:54:47.850Z,97951.28
2023-04-20T19:57:14.438Z,97951.75
2023-04-20T19:59:41.062Z,97950.27
2023-04-20T20:05:14.155Z,97945.81
2023-04-20T20:07:59.731Z,97946.31
2023-04-20T20:10:26.452Z,97942.82
2023-04-20T20:12:52.889Z,97941.51
2023-04-20T20:15:19.481Z,97940.02
2023-04-20T20:17:46.166Z,97938.42
2023-04-20T20:20:12.806Z,97935.91
2023-04-20T20:23:09.092Z,97931.39
2023-04-20T20:25:36.121Z,97930.81
2023-04-20T20:28:02.590Z,97931.75
2023-04-20T20:30:37.692Z,97930.55
2023-04-20T20:33:04.480Z,97932.58
2023-04-20T20:35:31.052Z,97931.02
2023-04-20T20:38:00.812Z,97931.15
2023-04-20T20:40:27.326Z,97934.95
2023-04-20T20:42:53.741Z,97933.98
2023-04-20T20:45:20.477Z,97939.48
2023-04-20T20:47:47.025Z,97934.52
2023-04-20T20:50:16.717Z,97939.40
2023-04-20T20:52:43.110Z,97939.92
2023-04-20T20:55:12.782Z,97938.04
2023-04-20T20:57:39.229Z,97942.11
2023-04-20T21:00:07.182Z,97938.71
2023-04-20T21:02:34.195Z,97941.38
2023-04-20T21:05:00.955Z,97947.40
2023-04-20T21:07:27.383Z,97949.08
2023-04-20T21:09:54.123Z,97949.52
2023-04-20T21:12:20.483Z,97947.48
2023-04-20T21:14:47.126Z,97947.48
2023-04-20T21:17:13.787Z,97947.71
2023-04-20T21:19:42.897Z,97950.30
2023-04-20T21:22:09.424Z,97947.17
2023-04-20T21:24:36.030Z,97947.09
2023-04-20T21:27:05.371Z,97947.95
2023-04-20T21:29:40.021Z,97948.10
2023-04-20T21:32:26.819Z,97947.39
2023-04-20T21:34:53.480Z,97947.02
2023-04-20T21:37:20.055Z,97947.98
2023-04-20T21:39:58.856Z,97950.27
2023-04-20T21:42:28.011Z,97946.77
2023-04-20T21:44:54.384Z,97943.57
2023-04-20T21:47:20.801Z,97947.25
2023-04-20T21:49:50.594Z,97944.52
2023-04-20T21:52:17.147Z,97940.60
2023-04-20T21:54:57.437Z,97941.77
2023-04-20T21:57:24.042Z,97944.98
2023-04-20T21:59:50.385Z,97941.33
2023-04-20T22:02:17.112Z,97941.77
2023-04-20T22:04:46.825Z,97941.84
2023-04-20T22:07:15.544Z,97943.65
2023-04-20T22:09:42.231Z,97944.13
2023-04-20T22:12:11.133Z,97947.91
2023-04-20T22:14:40.285Z,97948.21
2023-04-20T22:17:06.777Z,97947.77
2023-04-20T22:19:33.110Z,97947.47
2023-04-20T22:21:59.432Z,97950.80
2023-04-20T22:24:28.577Z,97951.32
2023-04-20T22:26:55.252Z,97945.62
2023-04-20T22:29:21.811Z,97945.88
2023-04-20T22:31:48.396Z,97947.63
2023-04-20T22:34:14.916Z,97949.60
2023-04-20T22:36:41.333Z,97947.48
2023-04-20T22:39:07.918Z,97948.17
2023-04-20T22:41:34.289Z,97950.05
2023-04-20T22:44:00.762Z,97953.52
2023-04-20T22:46:27.246Z,97952.50
2023-04-20T22:48:53.602Z,97953.89
2023-04-20T22:51:19.997Z,97953.27
2023-04-20T22:53:46.489Z,97952.66
2023-04-20T22:56:12.805Z,97950.66
2023-04-20T22:58:39.186Z,97953.95
2023-04-20T23:01:05.609Z,97956.01
2023-04-20T23:03:32.148Z,97954.34
2023-04-20T23:05:58.991Z,97952.55
2023-04-20T23:08:25.661Z,97951.02
2023-04-20T23:10:52.225Z,97951.70
2023-04-20T23:13:19.384Z,97950.77
2023-04-20T23:15:45.811Z,97950.23
2023-04-20T23:18:12.225Z,97948.14
2023-04-20T23:20:38.675Z,97945.24
2023-04-20T23:23:05.175Z,97947.44
2023-04-20T23:25:31.586Z,97941.34
2023-04-20T23:27:57.961Z,97943.98
2023-04-20T23:30:24.499Z,97943.11
2023-04-20T23:32:50.861Z,97942.09
2023-04-20T23:35:17.388Z,97939.62
2023-04-20T23:37:43.894Z,97941.91
2023-04-20T23:40:10.251Z,97940.83
2023-04-20T23:42:36.717Z,97936.53
2023-04-20T23:45:07.164Z,97935.60
2023-04-20T23:47:33.617Z,97934.35
2023-04-20T23:50:00.124Z,97933.90
2023-04-20T23:52:26.575Z,97933.25
2023-04-20T23:54:53.828Z,97932.92
2023-04-20T23:57:20.189Z,97931.85
2023-04-20T23:59:46.598Z,97928.08
